Descanso, CA

4:14 PM PDT on October 24, 2014 (GMT -0700)
Sherilton Valley | Change Station
CLOSE
Current Station
Personal Weather Station
Location: Descanso, CA
Elevation: 3264 ft
Nearby Weather Stations

Elev 3264 ft 32.90 °N, 116.62 °W | Updated 20 seconds ago

Clear
Clear
80.7 °F
Feels Like 79 °F
N
7.0
Wind Variable Wind from WSW
Gusts 8.0 mph

Today
High -- | Low -- °F
--% Chance of Precip.
Yesterday
High -- | Low -- °F
Precip. -- in
6:57 AM 6:03 PM
New Moon, 1% visible
Pressure 29.90 in
Visibility -9999.0 miles
Clouds
Heat Index 79 °F
Dew Point 43 °F
Humidity 26%
Rainfall 0.00 in
Snow Depth Not available.
UV Not available.
Pollen 3.80 out of 12
Air Quality Not available.
Flu Activity Sporadic
METAR KCZZ 242252Z AUTO 25011KT 29/04 A2999 RMK AO1 SLP125 T02890044

More Conditions Fewer Conditions

Pressure 29.90 in
Visibility -9999.0 miles
Clouds
Heat Index 79 °F
Dew Point 43 °F
Humidity 26%
Rainfall 0.00 in
Snow Depth Not available.
UV Not available.
Pollen 3.80 out of 12
Air Quality Not available.
Flu Activity Sporadic
METAR KCZZ 242252Z AUTO 25011KT 29/04 A2999 RMK AO1 SLP125 T02890044

More Conditions Fewer Conditions

10-Day Weather Forecast

Almanac

Astronomy

Oct. 24, 2014 Rise Set
Actual Time 6:57 AM PDT 6:03 PM PDT
Civil Twilight 6:32 AM PDT 6:28 PM PDT
Nautical Twilight 6:03 AM PDT 6:57 PM PDT
Astronomical Twilight 5:35 AM PDT 7:25 PM PDT
Moon 7:39 AM PDT 6:48 PM PDT
Length of Visible Light 11h 55m
Length of Day
11h 05m
Tomorrow will be 1m 51s shorter.
New Moon, 1% of the Moon is Illuminated
Today
New Moon
Oct 30
First Quarter
Nov 6
Full
Nov 14
Last Quarter
Nov 22
New

Today's Extremes

State Highs State Lows

Community

WunderPhotos

Upload Photos

1,764,708 photos uploaded!

Nearby

Snow Depth

Station Depth Elevation
Leavitt Meadows 0 in 7200 ft
Summit Meadow 0 in 9122 ft
Ward Creek #3 12 in 6750 ft
Adin Mountain 0 in 6200 ft

Earthquake Activity

City Distance Mag. Time & Date
Maneadero, Mexico 99 miles 2.5 7:44 AM PDT
2014-10-24
San Felipe, Mexico 120 miles 3.0 11:00 PM PDT
2014-10-23
Brea, California 100 miles 2.9 3:35 PM PDT
2014-10-23
Brea, California 100 miles 2.8 3:34 PM PDT
2014-10-23
Minimum magnitude displayed is 2.5.

Coastal Water Temperatures

Place Temperature
No Stations Reporting

Nearby Weather Stations